createdAt,value
2018-08-07T00:04:49.995Z,4
2018-08-07T00:09:49.997Z,5
2018-08-07T00:14:50.018Z,4
2018-08-07T00:19:50.314Z,4
2018-08-07T00:24:50.163Z,6
2018-08-07T00:29:49.995Z,6
2018-08-07T00:34:50.000Z,8
2018-08-07T00:39:50.308Z,5
2018-08-07T00:44:50.160Z,5
2018-08-07T00:49:49.945Z,5
2018-08-07T00:54:50.167Z,4
2018-08-07T00:59:50.044Z,3
2018-08-07T01:04:50.112Z,6
2018-08-07T01:09:50.207Z,4
2018-08-07T01:14:50.166Z,5
2018-08-07T01:19:50.185Z,6
2018-08-07T01:24:50.235Z,4
2018-08-07T01:29:50.145Z,5
2018-08-07T01:34:49.995Z,5
2018-08-07T01:39:50.123Z,6
2018-08-07T01:44:49.959Z,5
2018-08-07T01:49:50.196Z,5
2018-08-07T01:54:49.909Z,6
2018-08-07T01:59:50.169Z,5
2018-08-07T02:04:50.018Z,4
2018-08-07T02:09:49.901Z,5
2018-08-07T02:14:49.919Z,6
2018-08-07T02:19:50.036Z,5
2018-08-07T02:24:50.120Z,6
2018-08-07T02:29:49.795Z,7
2018-08-07T02:34:50.080Z,7
2018-08-07T02:39:49.858Z,7
2018-08-07T02:44:50.006Z,5
2018-08-07T02:49:49.735Z,8
2018-08-07T02:54:49.966Z,6
2018-08-07T02:59:49.749Z,6
2018-08-07T03:04:50.040Z,6
2018-08-07T03:09:49.812Z,6
2018-08-07T03:14:50.016Z,6
2018-08-07T03:19:49.896Z,8
2018-08-07T03:24:49.945Z,7
2018-08-07T03:29:49.734Z,8
2018-08-07T03:34:49.724Z,4
2018-08-07T03:39:50.053Z,9
2018-08-07T03:44:49.805Z,8
2018-08-07T03:49:49.755Z,7
2018-08-07T03:54:49.694Z,7
2018-08-07T03:59:49.640Z,7
2018-08-07T04:04:49.757Z,5
2018-08-07T04:09:49.880Z,6
2018-08-07T04:14:49.719Z,4
2018-08-07T04:19:49.994Z,6
2018-08-07T04:24:49.761Z,5
2018-08-07T04:29:49.663Z,6
2018-08-07T04:34:49.920Z,5
2018-08-07T04:39:49.846Z,4
2018-08-07T04:44:49.546Z,5
2018-08-07T04:49:49.696Z,5
2018-08-07T04:54:49.775Z,4
2018-08-07T04:59:49.706Z,5
2018-08-07T05:04:49.859Z,3
2018-08-07T05:09:49.596Z,3
2018-08-07T05:14:49.756Z,4
2018-08-07T05:19:49.706Z,4
2018-08-07T05:24:49.764Z,4
2018-08-07T05:29:49.922Z,5
2018-08-07T05:34:49.778Z,4
2018-08-07T05:39:49.874Z,6
2018-08-07T05:44:49.799Z,4
2018-08-07T05:49:49.508Z,5
2018-08-07T05:54:49.595Z,5
2018-08-07T05:59:49.740Z,5
2018-08-07T06:04:49.473Z,5
2018-08-07T06:09:49.671Z,5
2018-08-07T06:14:49.614Z,5
2018-08-07T06:19:49.508Z,5
2018-08-07T06:24:49.601Z,6
2018-08-07T06:29:49.515Z,6
2018-08-07T06:34:49.597Z,5
2018-08-07T06:39:49.692Z,6
2018-08-07T06:44:49.556Z,8
2018-08-07T06:49:49.820Z,6
2018-08-07T06:54:49.792Z,5
2018-08-07T06:59:49.453Z,8
2018-08-07T07:04:49.733Z,5
2018-08-07T07:09:49.835Z,5
2018-08-07T07:14:49.512Z,6
2018-08-07T07:19:49.580Z,6
2018-08-07T07:24:49.556Z,6
2018-08-07T07:29:49.639Z,6
2018-08-07T07:34:49.635Z,3
2018-08-07T07:39:49.465Z,4
2018-08-07T07:44:49.326Z,4
2018-08-07T07:49:49.393Z,4
2018-08-07T07:54:49.341Z,4
2018-08-07T07:59:49.604Z,5
2018-08-07T08:04:49.565Z,4
2018-08-07T08:09:49.360Z,4
2018-08-07T08:14:49.283Z,5
2018-08-07T08:19:49.323Z,4
2018-08-07T08:24:49.515Z,3
2018-08-07T08:29:49.327Z,4
2018-08-07T08:34:49.226Z,5
2018-08-07T08:39:49.505Z,3
2018-08-07T08:44:49.251Z,4
2018-08-07T08:49:49.225Z,3
2018-08-07T08:54:49.317Z,3
2018-08-07T08:59:49.217Z,2
2018-08-07T09:04:49.228Z,4
2018-08-07T09:09:49.454Z,4
2018-08-07T09:14:49.406Z,6
2018-08-07T09:19:49.236Z,5
2018-08-07T09:24:49.367Z,4
2018-08-07T09:29:49.168Z,5
2018-08-07T09:34:49.468Z,4
2018-08-07T09:39:49.209Z,4
2018-08-07T09:44:49.175Z,5
2018-08-07T09:49:49.397Z,5
2018-08-07T09:54:49.473Z,5
2018-08-07T09:59:49.619Z,5
2018-08-07T10:04:49.238Z,5
2018-08-07T10:09:49.332Z,5
2018-08-07T10:14:49.366Z,7
2018-08-07T10:19:49.021Z,4
2018-08-07T10:24:49.082Z,5
2018-08-07T10:29:49.420Z,4
2018-08-07T10:34:49.365Z,4
2018-08-07T10:39:49.380Z,4
2018-08-07T10:44:49.017Z,4
2018-08-07T10:49:49.384Z,4
2018-08-07T10:54:49.257Z,4
2018-08-07T10:59:49.132Z,5
2018-08-07T11:04:49.231Z,4
2018-08-07T11:09:49.029Z,5
2018-08-07T11:14:49.240Z,4
2018-08-07T11:19:49.152Z,5
2018-08-07T11:24:49.102Z,5
2018-08-07T11:29:49.064Z,5
2018-08-07T11:34:49.066Z,4
2018-08-07T11:39:49.115Z,4
2018-08-07T11:44:48.977Z,4
2018-08-07T11:49:49.084Z,3
2018-08-07T11:54:48.966Z,3
2018-08-07T11:59:49.001Z,4
2018-08-07T12:04:49.199Z,3
2018-08-07T12:09:49.059Z,4
2018-08-07T12:14:48.977Z,5
2018-08-07T12:19:49.331Z,4
2018-08-07T12:24:49.243Z,5
2018-08-07T12:29:48.991Z,4
2018-08-07T12:34:49.105Z,2
2018-08-07T12:39:49.232Z,2
2018-08-07T12:44:49.129Z,1
2018-08-07T12:49:48.992Z,1
2018-08-07T12:54:49.062Z,3
2018-08-07T12:59:48.863Z,4
2018-08-07T13:04:48.836Z,4
2018-08-07T13:09:49.043Z,2
2018-08-07T13:14:49.011Z,4
2018-08-07T13:19:49.174Z,3
2018-08-07T13:24:49.010Z,5
2018-08-07T13:29:49.222Z,3
2018-08-07T13:34:48.773Z,4
2018-08-07T13:39:48.870Z,3
2018-08-07T13:44:49.170Z,4
2018-08-07T13:49:49.153Z,4
2018-08-07T13:54:48.891Z,4
2018-08-07T13:59:48.928Z,4
2018-08-07T14:04:49.006Z,5
2018-08-07T14:09:48.930Z,5
2018-08-07T14:14:48.714Z,6
2018-08-07T14:19:48.842Z,5
2018-08-07T14:24:48.820Z,5
2018-08-07T14:29:48.925Z,4
2018-08-07T14:34:48.821Z,4
2018-08-07T14:39:48.668Z,3
2018-08-07T14:44:48.963Z,4
2018-08-07T14:49:48.791Z,4
2018-08-07T14:54:48.692Z,5
2018-08-07T14:59:48.863Z,5
2018-08-07T15:04:49.061Z,4
2018-08-07T15:09:49.680Z,5
2018-08-07T15:14:49.447Z,4
2018-08-07T15:19:49.132Z,4
2018-08-07T15:24:48.732Z,4
2018-08-07T15:29:48.880Z,4
2018-08-07T15:34:48.863Z,5
2018-08-07T15:39:48.899Z,5
2018-08-07T15:44:48.872Z,4
2018-08-07T15:49:48.726Z,4
2018-08-07T15:54:48.841Z,5
2018-08-07T15:59:48.719Z,5
2018-08-07T16:04:48.916Z,4
2018-08-07T16:09:48.800Z,4
2018-08-07T16:14:48.818Z,6
2018-08-07T16:19:48.849Z,6
2018-08-07T16:24:48.794Z,6
2018-08-07T16:29:48.776Z,7
2018-08-07T16:34:48.552Z,6
2018-08-07T16:39:48.594Z,6
2018-08-07T16:44:48.536Z,6
2018-08-07T16:49:48.506Z,5
2018-08-07T16:54:48.820Z,6
2018-08-07T16:59:48.446Z,5
2018-08-07T17:04:48.585Z,5
2018-08-07T17:09:48.652Z,5
2018-08-07T17:14:48.622Z,5
2018-08-07T17:19:48.653Z,7
2018-08-07T17:24:48.539Z,6
2018-08-07T17:29:48.724Z,6
2018-08-07T17:34:48.413Z,6
2018-08-07T17:39:48.537Z,6
2018-08-07T17:44:48.752Z,8
2018-08-07T17:49:48.464Z,6
2018-08-07T17:54:48.558Z,6
2018-08-07T17:59:49.495Z,7
2018-08-07T18:04:48.415Z,5
2018-08-07T18:09:48.456Z,7
2018-08-07T18:14:48.486Z,7
2018-08-07T18:19:48.698Z,6
2018-08-07T18:24:48.651Z,6
2018-08-07T18:29:48.463Z,6
2018-08-07T18:34:48.604Z,6
2018-08-07T18:39:48.370Z,5
2018-08-07T18:44:48.375Z,6
2018-08-07T18:49:48.348Z,7
2018-08-07T18:54:48.518Z,6
2018-08-07T18:59:48.463Z,6
2018-08-07T19:04:48.458Z,5
2018-08-07T19:09:48.573Z,5
2018-08-07T19:14:48.290Z,6
2018-08-07T19:19:48.536Z,6
2018-08-07T19:24:48.365Z,5
2018-08-07T19:29:48.572Z,6
2018-08-07T19:34:48.332Z,6
2018-08-07T19:39:48.472Z,6
2018-08-07T19:44:48.287Z,6
2018-08-07T19:49:48.327Z,5
2018-08-07T19:54:48.419Z,6
2018-08-07T19:59:48.510Z,7
2018-08-07T20:04:48.284Z,6
2018-08-07T20:09:48.226Z,6
2018-08-07T20:14:48.279Z,6
2018-08-07T20:19:48.233Z,7
2018-08-07T20:24:48.240Z,7
2018-08-07T20:29:48.166Z,6
2018-08-07T20:34:48.219Z,5
2018-08-07T20:39:48.466Z,5
2018-08-07T20:44:48.186Z,7
2018-08-07T20:49:48.357Z,5
2018-08-07T20:54:48.329Z,6
2018-08-07T20:59:48.185Z,8
2018-08-07T21:04:48.432Z,7
2018-08-07T21:09:48.149Z,7
2018-08-07T21:14:48.372Z,7
2018-08-07T21:19:48.403Z,7
2018-08-07T21:24:48.177Z,7
2018-08-07T21:29:48.387Z,7
2018-08-07T21:34:48.105Z,7
2018-08-07T21:39:48.360Z,9
2018-08-07T21:44:48.345Z,8
2018-08-07T21:49:48.330Z,7
2018-08-07T21:54:48.075Z,8
2018-08-07T21:59:48.240Z,8
2018-08-07T22:04:48.019Z,9
2018-08-07T22:09:48.211Z,7
2018-08-07T22:14:47.997Z,7
2018-08-07T22:19:48.169Z,7
2018-08-07T22:24:48.199Z,8
2018-08-07T22:29:48.326Z,7
2018-08-07T22:34:48.040Z,6
2018-08-07T22:39:47.999Z,8
2018-08-07T22:44:48.228Z,8
2018-08-07T22:49:48.210Z,5
2018-08-07T22:54:48.047Z,7
2018-08-07T22:59:48.005Z,7
2018-08-07T23:04:47.923Z,6
2018-08-07T23:09:48.001Z,6
2018-08-07T23:14:48.044Z,6
2018-08-07T23:19:47.924Z,5
2018-08-07T23:24:48.040Z,7
2018-08-07T23:29:48.035Z,7
2018-08-07T23:34:47.883Z,7
2018-08-07T23:39:47.877Z,7
2018-08-07T23:44:47.975Z,7
2018-08-07T23:49:47.989Z,5
2018-08-07T23:54:48.081Z,6
2018-08-07T23:59:47.901Z,6
